Latest Weather Observations for Albion Park

IDN60801

Issued at 4:03 am EDT Wednesday 18 October 2017 (issued every 30 minutes, with the page automatically refreshed every 10 minutes)

About weather observations | Map of weather stations | Latest weather observations for NSW | Other Formats
Station Details ID: 068241 Name: WOLLONGONG AIRPORT Lat: -34.56 Lon: 150.79 Height: 8.0 m
Data from the previous 72 hours. | See also: Recent months at Albion Park
Date/Time
EDT
Temp
°C
App
Temp
°C
Dew
Point
°C
Rel
Hum
%
Delta-T
°C
Wind Press
QNH
hPa
Press
MSL
hPa
Rain since
9am
mm
Dir  Spd
km/h
Gust
km/h
Spd
kts
Gust
kts
18/04:00am 11.9 12.4 11.7 99 0.1 CALM 0 6 0 3 1026.9 1026.9 0.0
18/03:30am 11.1 10.2 10.6 97 0.3 W 6 7 3 4 1027.1 1027.1 0.0
18/03:00am 11.2 11.4 10.4 95 0.4 CALM 0 0 0 0 1027.4 1027.4 0.0
18/02:30am 12.0 11.7 11.4 96 0.3 WSW 4 9 2 5 1027.4 1027.4 0.0
18/02:00am 11.7 12.1 11.2 97 0.3 CALM 0 0 0 0 1027.7 1027.7 0.0
18/01:30am 11.8 10.9 10.7 93 0.6 W 6 7 3 4 1028.1 1028.1 0.0
18/01:00am 12.4 12.9 11.5 94 0.5 CALM 0 0 0 0 1028.5 1028.5 0.0
18/12:30am 12.8 13.2 11.2 90 0.8 CALM 0 0 0 0 1028.9 1028.9 0.0
18/12:00am 13.1 13.6 11.5 90 0.8 CALM 0 0 0 0 1029.0 1029.0 0.0
 
Date/Time
EDT
Temp
°C
App
Temp
°C
Dew
Point
°C
Rel
Hum
%
Delta-T
°C
Wind Press
QNH
hPa
Press
MSL
hPa
Rain since
9am
mm
Dir  Spd
km/h
Gust
km/h
Spd
kts
Gust
kts
17/11:30pm 13.8 14.1 12.2 90 0.9 W 2 7 1 4 1029.0 1029.0 0.0
17/11:00pm 13.5 13.6 11.6 88 1.0 NW 2 7 1 4 1029.0 1029.0 0.0
17/10:30pm 13.7 12.9 11.6 87 1.1 W 7 9 4 5 1028.9 1028.9 0.0
17/10:00pm 14.4 13.2 11.6 83 1.5 WNW 9 11 5 6 1028.8 1028.8 0.0
17/09:30pm 16.7 15.5 11.6 72 2.8 NW 9 11 5 6 1028.5 1028.5 0.0
17/09:00pm 18.9 17.4 13.1 69 3.3 N 13 17 7 9 1028.0 1028.0 0.0
17/08:30pm 19.3 17.2 13.5 69 3.3 NNE 17 26 9 14 1027.5 1027.5 0.0
17/08:00pm 19.7 16.5 13.2 66 3.7 NNE 22 28 12 15 1027.0 1027.0 0.0
17/07:30pm 20.1 17.3 13.1 64 4.0 NNE 20 32 11 17 1026.8 1026.8 0.0
17/07:00pm 20.3 17.2 13.5 65 3.9 NE 22 32 12 17 1026.7 1026.7 0.0
17/06:30pm 20.7 16.3 12.9 61 4.4 NE 28 39 15 21 1026.5 1026.5 0.0
17/06:00pm 21.2 16.7 12.6 58 4.8 NE 28 43 15 23 1026.4 1026.4 0.0
17/05:30pm 21.8 17.2 12.4 55 5.3 NE 28 39 15 21 1026.3 1026.3 0.0
17/05:00pm 21.8 17.3 12.6 56 5.2 NE 28 41 15 22 1026.0 1026.0 0.0
17/04:30pm 22.0 17.8 12.5 54 5.4 NE 26 37 14 20 1026.1 1026.1 0.0
17/04:00pm 22.6 18.1 12.5 53 5.7 NE 28 37 15 20 1026.1 1026.1 0.0
17/03:30pm 21.9 17.0 12.5 55 5.3 NE 30 39 16 21 1026.2 1026.2 0.0
17/03:00pm 23.6 19.2 12.9 51 6.1 NE 28 37 15 20 1026.2 1026.2 0.0
17/02:30pm 22.2 18.1 11.3 50 6.1 NE 24 33 13 18 1026.2 1026.2 0.0
17/02:00pm 23.0 17.5 12.0 50 6.2 NE 32 37 17 20 1026.4 1026.4 0.0
17/01:30pm 23.0 17.5 11.7 49 6.4 NE 32 39 17 21 1026.5 1026.5 0.0
17/01:00pm 23.2 17.7 11.9 49 6.3 NE 32 39 17 21 1026.7 1026.7 0.0
17/12:30pm 23.3 17.9 12.3 50 6.3 NE 32 41 17 22 1027.0 1027.0 0.0
17/12:00pm 23.0 17.8 11.7 49 6.3 NE 30 41 16 22 1027.3 1027.3 0.0
17/11:30am 23.2 18.6 12.2 50 6.2 NE 28 35 15 19 1027.6 1027.6 0.0
17/11:00am 23.2 19.3 12.2 50 6.2 NE 24 32 13 17 1027.8 1027.8 0.0
17/10:30am 22.5 19.2 11.6 50 6.1 N 20 35 11 19 1027.9 1027.9 0.0
17/10:00am 22.5 18.4 11.6 50 6.1 N 24 32 13 17 1028.0 1028.0 0.0
17/09:30am 21.7 18.4 11.7 53 5.6 N 20 30 11 16 1028.0 1028.0 0.0
17/09:00am 21.0 18.3 11.6 55 5.2 N 17 24 9 13 1027.9 1027.9 0.0
17/08:30am 20.2 17.7 12.2 60 4.5 N 17 24 9 13 1027.8 1027.8 0.0
17/08:00am 16.8 17.5 12.1 74 2.6 CALM 0 0 0 0 1027.8 1027.8 0.0
17/07:30am 13.3 13.3 12.5 95 0.4 SW 4 6 2 3 1027.6 1027.6 0.0
17/07:00am 11.1 10.9 10.6 97 0.3 WNW 2 6 1 3 1027.3 1027.3 0.0
17/06:30am 10.6 10.0 10.3 98 0.2 W 4 9 2 5 1027.1 1027.1 0.0
17/06:00am 10.5 10.6 10.0 97 0.3 CALM 0 0 0 0 1027.1 1027.1 0.0
17/05:30am 10.8 11.0 10.5 98 0.2 CALM 0 0 0 0 1027.0 1027.0 0.0
17/05:00am 10.9 11.0 10.1 95 0.4 CALM 0 0 0 0 1026.8 1026.8 0.0
17/04:30am 11.2 11.4 10.4 95 0.4 CALM 0 0 0 0 1026.8 1026.8 0.0
17/04:00am 11.7 11.9 10.6 93 0.6 CALM 0 0 0 0 1026.9 1026.9 0.0
17/03:30am 12.4 12.8 11.1 92 0.7 CALM 0 6 0 3 1027.1 1027.1 0.0
17/03:00am 12.5 11.9 11.6 94 0.5 SW 6 7 3 4 1027.3 1027.3 0.0
17/02:30am 11.7 10.9 11.2 97 0.3 W 6 7 3 4 1027.5 1027.5 0.0
17/02:00am 11.4 10.6 11.1 98 0.2 NW 6 6 3 3 1027.7 1027.7 0.0
17/01:30am 10.9 11.1 10.7 99 0.1 CALM 0 0 0 0 1028.0 1028.0 0.0
17/01:00am 11.0 11.2 10.7 98 0.2 CALM 0 6 0 3 1028.2 1028.2 0.0
17/12:30am 10.8 9.5 10.0 95 0.4 W 7 9 4 5 1028.2 1028.2 0.0
17/12:00am 11.0 9.9 10.1 94 0.5 WSW 6 7 3 4 1028.3 1028.3 0.0
 
Date/Time
EDT
Temp
°C
App
Temp
°C
Dew
Point
°C
Rel
Hum
%
Delta-T
°C
Wind Press
QNH
hPa
Press
MSL
hPa
Rain since
9am
mm
Dir  Spd
km/h
Gust
km/h
Spd
kts
Gust
kts
16/11:30pm 12.0 12.5 11.5 97 0.3 CALM 0 0 0 0 1028.4 1028.4 0.0
16/11:00pm 12.0 11.2 10.9 93 0.6 W 6 7 3 4 1028.5 1028.5 0.0
16/10:30pm 12.9 13.5 11.8 93 0.6 CALM 0 0 0 0 1028.4 1028.4 0.0
16/10:00pm 13.3 12.6 11.5 89 0.9 W 6 9 3 5 1028.4 1028.4 0.0
16/09:30pm 14.2 13.0 11.7 85 1.3 W 9 11 5 6 1028.3 1028.3 0.0
16/09:00pm 15.4 14.4 12.2 81 1.7 WNW 9 11 5 6 1028.1 1028.1 0.0
16/08:30pm 18.4 17.4 13.5 73 2.8 NNW 11 15 6 8 1027.8 1027.8 0.0
16/08:00pm 19.1 17.9 13.9 72 3.0 NNE 13 20 7 11 1027.4 1027.4 0.0
16/07:30pm 19.1 17.6 14.1 73 2.9 NE 15 20 8 11 1027.1 1027.1 0.0
16/07:00pm 19.3 16.7 13.9 71 3.1 NE 20 28 11 15 1026.8 1026.8 0.0
16/06:30pm 19.8 17.4 13.7 68 3.5 NE 19 22 10 12 1026.7 1026.7 0.0
16/06:00pm 20.2 17.5 13.6 66 3.8 ENE 20 26 11 14 1026.5 1026.5 0.0
16/05:30pm 20.9 18.2 13.6 63 4.2 ENE 20 28 11 15 1026.3 1026.3 0.0
16/05:00pm 21.2 18.2 13.6 62 4.4 NE 22 30 12 16 1026.2 1026.2 0.0
16/04:30pm 21.0 18.2 13.2 61 4.5 NE 20 28 11 15 1026.2 1026.2 0.0
16/04:00pm 21.0 17.5 13.4 62 4.3 NE 24 32 13 17 1026.3 1026.3 0.0
16/03:30pm 21.4 17.9 13.3 60 4.6 ENE 24 28 13 15 1026.5 1026.5 0.0
16/03:00pm 21.7 17.9 13.6 60 4.7 ENE 26 32 14 17 1026.6 1026.6 0.0
16/02:30pm 22.0 18.7 13.9 60 4.7 NE 24 32 13 17 1027.0 1027.0 0.0
16/02:00pm 21.9 18.8 14.5 63 4.3 NE 24 32 13 17 1027.3 1027.3 0.0
16/01:30pm 22.1 18.6 14.5 62 4.5 NE 26 35 14 19 1027.6 1027.6 0.0
16/01:00pm 22.1 18.7 14.7 63 4.3 NE 26 33 14 18 1027.9 1027.9 0.0
16/12:30pm 22.4 19.8 14.8 62 4.5 ENE 22 30 12 16 1028.1 1028.1 0.0
16/12:00pm 21.5 18.7 14.2 63 4.2 NE 22 28 12 15 1028.4 1028.4 0.0
16/11:30am 22.1 19.6 14.0 60 4.7 NE 20 28 11 15 1028.6 1028.6 0.0
16/11:00am 21.7 20.0 14.8 65 4.0 NE 17 26 9 14 1028.8 1028.8 0.0
16/10:30am 21.5 19.9 15.1 67 3.8 NE 17 24 9 13 1028.9 1028.9 0.0
16/10:00am 20.7 19.5 15.0 70 3.3 NE 15 20 8 11 1028.7 1028.7 0.0
16/09:30am 20.2 19.7 15.0 72 3.1 NE 11 17 6 9 1028.6 1028.6 0.0
16/09:00am 19.9 19.8 14.9 73 2.9 NE 9 15 5 8 1028.3 1028.3 0.0
16/08:30am 19.3 19.6 14.6 74 2.7 NNE 6 9 3 5 1027.9 1027.9 0.0
16/08:00am 17.3 18.4 14.6 84 1.5 WNW 2 6 1 3 1027.6 1027.6 0.0
16/07:30am 14.6 15.3 14.4 99 0.1 W 4 6 2 3 1027.4 1027.4 0.0
16/07:00am 12.3 11.8 12.1 99 0.1 WSW 6 7 3 4 1027.1 1027.1 0.0
16/06:30am 12.0 11.4 11.8 99 0.1 SW 6 6 3 3 1026.7 1026.7 0.0
16/06:00am 12.7 13.4 12.2 97 0.3 CALM 0 0 0 0 1026.3 1026.3 0.0
16/05:31am 13.4 12.9 12.1 92 0.7 WSW 6 7 3 4 1026.0 1026.0 0.0
16/05:30am 13.4 13.3 12.1 92 0.7 WSW 4 7 2 4 1026.0 1026.0 0.0
16/05:08am 14.2 13.8 12.9 92 0.7 NW 7 11 4 6 1025.7 1025.7 0.0
16/05:01am 14.3 14.1 13.0 92 0.7 WNW 6 9 3 5 1025.7 1025.7 0.0
16/05:00am 14.3 14.1 13.0 92 0.7 WNW 6 9 3 5 1025.7 1025.7 0.0
16/04:30am 14.7 14.1 13.4 92 0.7 W 9 9 5 5 1025.8 1025.8 0.0
16/04:24am 14.6 13.9 13.3 92 0.7 W 9 11 5 6 1025.7 1025.7 0.0
16/04:12am 14.4 14.2 13.1 92 0.7 WNW 6 9 3 5 1025.7 1025.7 0.0
16/04:00am 14.8 15.8 13.3 91 0.8 CALM 0 0 0 0 1025.8 1025.8 0.0
16/03:33am 14.5 13.9 13.4 93 0.6 WSW 9 11 5 6 1026.0 1026.0 0.0
16/03:30am 14.5 13.9 13.4 93 0.6 WSW 9 11 5 6 1026.0 1026.0 0.0
16/03:01am 14.1 14.8 13.3 95 0.4 W 2 9 1 5 1026.1 1026.1 0.0
16/03:00am 14.1 15.1 13.3 95 0.4 CALM 0 7 0 4 1026.1 1026.1 0.0
16/02:30am 13.5 13.0 12.7 95 0.4 W 7 7 4 4 1026.2 1026.2 0.0
16/02:12am 12.9 12.9 12.3 96 0.3 W 4 7 2 4 1026.2 1026.2 0.0
16/02:00am 12.7 12.2 12.1 96 0.3 W 6 7 3 4 1026.2 1026.2 0.0
16/01:30am 12.3 11.9 11.0 92 0.7 W 4 6 2 3 1026.5 1026.5 0.0
16/01:00am 13.2 13.6 12.4 95 0.4 WSW 2 6 1 3 1026.7 1026.7 0.0
16/12:30am 13.1 14.0 12.8 98 0.2 CALM 0 0 0 0 1026.8 1026.8 0.0
16/12:00am 12.3 11.8 12.0 98 0.2 W 6 7 3 4 1026.9 1026.9 0.0
 
Date/Time
EDT
Temp
°C
App
Temp
°C
Dew
Point
°C
Rel
Hum
%
Delta-T
°C
Wind Press
QNH
hPa
Press
MSL
hPa
Rain since
9am
mm
Dir  Spd
km/h
Gust
km/h
Spd
kts
Gust
kts
15/11:30pm 11.8 10.9 10.7 93 0.6 WSW 6 7 3 4 1026.8 1026.8 0.0
15/11:00pm 13.0 13.6 11.9 93 0.6 CALM 0 4 0 2 1026.6 1026.6 0.0
15/10:30pm 13.4 12.7 12.1 92 0.7 W 7 11 4 6 1026.6 1026.6 0.0
15/10:00pm 14.0 13.1 12.7 92 0.7 W 9 13 5 7 1026.6 1026.6 0.0
15/09:30pm 13.7 13.3 12.3 91 0.8 WSW 6 7 3 4 1026.4 1026.4 0.0
15/09:00pm 14.8 14.1 12.1 84 1.5 W 7 9 4 5 1026.2 1026.2 0.0
15/08:30pm 17.7 17.4 12.6 72 2.8 NNW 6 7 3 4 1026.0 1026.0 0.0
15/08:00pm 18.6 18.4 13.5 72 2.9 N 7 9 4 5 1025.7 1025.7 0.0
15/07:30pm 18.7 17.8 13.6 72 2.9 NNE 11 15 6 8 1025.5 1025.5 0.0
15/07:00pm 19.1 17.9 13.9 72 3.0 NE 13 20 7 11 1025.2 1025.2 0.0
15/06:30pm 19.4 17.8 13.8 70 3.2 NE 15 20 8 11 1025.0 1025.0 0.0
15/06:00pm 19.3 17.1 13.3 68 3.4 NE 17 20 9 11 1024.8 1024.8 0.0
15/05:30pm 19.8 17.9 13.0 65 3.9 NE 15 19 8 10 1024.8 1024.8 0.0
15/05:00pm 20.0 17.9 13.5 66 3.7 NE 17 20 9 11 1024.7 1024.7 0.0
15/04:30pm 20.1 17.5 13.1 64 4.0 NE 19 24 10 13 1024.6 1024.6 0.0
15/04:00pm 20.1 17.7 12.6 62 4.2 NE 17 24 9 13 1024.6 1024.6 0.0
15/03:30pm 20.1 17.7 12.6 62 4.2 NE 17 20 9 11 1024.7 1024.7 0.0
15/03:00pm 21.1 18.9 13.3 61 4.4 NE 17 24 9 13 1024.7 1024.7 0.0
15/02:30pm 19.8 17.1 12.8 64 3.9 NE 19 24 10 13 1025.0 1025.0 0.0
15/02:00pm 20.1 17.7 12.6 62 4.2 NE 17 24 9 13 1025.2 1025.2 0.0
15/01:30pm 19.8 17.5 13.0 65 3.9 NE 17 22 9 12 1025.3 1025.3 0.0
15/01:00pm 20.1 17.4 12.8 63 4.1 NE 19 24 10 13 1025.4 1025.4 0.0
15/12:30pm 20.7 18.1 13.2 62 4.3 NE 19 24 10 13 1025.6 1025.6 0.0
15/12:00pm 20.4 17.7 12.9 62 4.2 NE 19 24 10 13 1025.8 1025.8 0.0
15/11:30am 20.1 18.4 13.6 66 3.7 NE 15 20 8 11 1025.9 1025.9 0.0
15/11:00am 19.5 18.4 13.0 66 3.7 NE 11 17 6 9 1026.0 1026.0 0.0
15/10:30am 19.6 18.7 12.6 64 3.9 NE 9 15 5 8 1025.9 1025.9 0.0
15/10:00am 19.4 19.0 12.4 64 3.9 NNE 6 9 3 5 1025.9 1025.9 0.0
15/09:30am 19.5 19.3 13.0 66 3.7 ENE 6 9 3 5 1025.9 1025.9 0.0
15/09:17am 19.1 19.2 12.6 66 3.6 S 4 7 2 4 1025.9 1025.9 0.0
15/09:00am 18.2 17.7 12.2 68 3.3 S 6 11 3 6 1025.7 1025.7 0.0
15/08:30am 17.5 16.4 12.0 70 3.0 SSW 9 13 5 7 1025.5 1025.5 0.0
15/08:00am 16.8 15.9 11.3 70 3.0 SW 7 13 4 7 1025.2 1025.2 0.0
15/07:30am 15.4 16.0 12.0 80 1.8 CALM 0 0 0 0 1025.1 1025.1 0.0
15/07:12am 14.2 14.8 11.9 86 1.2 CALM 0 0 0 0 1025.0 1025.0 0.0
15/07:00am 14.0 14.6 11.9 87 1.1 CALM 0 6 0 3 1025.0 1025.0 0.0
15/06:30am 13.4 12.8 11.6 89 1.0 NNW 6 6 3 3 1024.7 1024.7 0.0
15/06:00am 13.3 12.6 11.5 89 1.0 NNW 6 7 3 4 1024.6 1024.6 0.0
15/05:30am 13.3 13.7 11.4 88 1.0 CALM 0 0 0 0 1024.5 1024.5 0.0
15/05:00am 13.5 14.0 11.7 89 1.0 CALM 0 0 0 0 1024.4 1024.4 0.0
15/04:30am 13.4 13.8 11.3 87 1.1 CALM 0 0 0 0 1024.4 1024.4 0.0

Other Formats:

Comma delimited format used in spreadsheet applications
http://www.bom.gov.au/fwo/IDN60801/IDN60801.95748.axf

JavaScript Object Notation format (JSON) in row-major order
http://www.bom.gov.au/fwo/IDN60801/IDN60801.95748.json